Terminal Aerodrome Forecast
Issued by NWS Cleveland, OH

Home | Current Version | Previous Version | Graphics & Text | Print | Product List | Glossary On
Versions: 1 2 3 4 5 6 7 8 9 10 11 12 13 14 15 16 17
000
FTUS41 KCLE 182336
TAFMFD
TAF
KMFD 182336Z 1900/1924 27010KT P6SM SCT040
     FM190900 25004KT P6SM BKN120
     FM191500 23007KT P6SM -SHRA VCTS BKN050CB
     FM191900 27009KT P6SM BKN070
     FM192100 29007KT P6SM SCT070=

USA.gov is the U.S. government's official web portal to all federal, state and local government web resources and services.